sensor_id;sensor_type;location;lat;lon;timestamp;pressure;altitude;pressure_sealevel;temperature;humidity
31775;BME280;66189;49.000;11.640;2023-05-20T00:01:20;96112.84;;;11.70;77.04
31775;BME280;66189;49.000;11.640;2023-05-20T00:03:21;96106.94;;;11.61;77.98
31775;BME280;66189;49.000;11.640;2023-05-20T00:05:21;96115.50;;;11.67;77.57
31775;BME280;66189;49.000;11.640;2023-05-20T00:07:21;96099.38;;;11.70;76.90
31775;BME280;66189;49.000;11.640;2023-05-20T00:09:23;96111.06;;;11.55;78.14
31775;BME280;66189;49.000;11.640;2023-05-20T00:11:23;96106.03;;;11.53;78.18
31775;BME280;66189;49.000;11.640;2023-05-20T00:13:23;96115.19;;;11.49;78.21
31775;BME280;66189;49.000;11.640;2023-05-20T00:15:24;96107.19;;;11.52;78.34
31775;BME280;66189;49.000;11.640;2023-05-20T00:17:24;96109.16;;;11.55;78.31
31775;BME280;66189;49.000;11.640;2023-05-20T00:19:27;96112.31;;;11.38;79.13
31775;BME280;66189;49.000;11.640;2023-05-20T00:21:27;96106.22;;;11.41;78.90
31775;BME280;66189;49.000;11.640;2023-05-20T00:23:28;96096.22;;;11.42;78.51
31775;BME280;66189;49.000;11.640;2023-05-20T00:25:29;96097.72;;;11.39;78.54
31775;BME280;66189;49.000;11.640;2023-05-20T00:27:31;96090.00;;;11.37;78.86
31775;BME280;66189;49.000;11.640;2023-05-20T00:29:32;96088.44;;;11.36;78.89
31775;BME280;66189;49.000;11.640;2023-05-20T00:31:33;96088.09;;;11.38;78.69
31775;BME280;66189;49.000;11.640;2023-05-20T00:33:33;96074.25;;;11.40;78.91
31775;BME280;66189;49.000;11.640;2023-05-20T00:35:35;96080.84;;;11.42;78.54
31775;BME280;66189;49.000;11.640;2023-05-20T00:37:35;96083.91;;;11.41;78.62
31775;BME280;66189;49.000;11.640;2023-05-20T00:39:36;96084.63;;;11.37;78.80
31775;BME280;66189;49.000;11.640;2023-05-20T00:41:36;96080.78;;;11.38;78.18
31775;BME280;66189;49.000;11.640;2023-05-20T00:43:37;96091.91;;;11.37;78.46
31775;BME280;66189;49.000;11.640;2023-05-20T00:45:37;96077.31;;;11.38;78.45
31775;BME280;66189;49.000;11.640;2023-05-20T00:50:26;96089.94;;;11.34;78.67
31775;BME280;66189;49.000;11.640;2023-05-20T00:52:30;96081.44;;;11.32;78.86
31775;BME280;66189;49.000;11.640;2023-05-20T00:54:31;96079.59;;;11.36;78.79
31775;BME280;66189;49.000;11.640;2023-05-20T00:56:31;96083.66;;;11.26;79.33
31775;BME280;66189;49.000;11.640;2023-05-20T00:58:31;96081.03;;;11.30;78.84
31775;BME280;66189;49.000;11.640;2023-05-20T01:00:32;96077.63;;;11.33;78.96
31775;BME280;66189;49.000;11.640;2023-05-20T01:02:32;96083.38;;;11.31;79.06
31775;BME280;66189;49.000;11.640;2023-05-20T01:04:33;96086.47;;;11.33;78.91
31775;BME280;66189;49.000;11.640;2023-05-20T01:06:35;96086.88;;;11.35;78.66
31775;BME280;66189;49.000;11.640;2023-05-20T01:08:37;96077.63;;;11.33;78.97
31775;BME280;66189;49.000;11.640;2023-05-20T01:10:41;96072.81;;;11.23;79.68
31775;BME280;66189;49.000;11.640;2023-05-20T01:12:45;96074.38;;;11.24;79.40
31775;BME280;66189;49.000;11.640;2023-05-20T01:14:49;96073.66;;;11.27;79.66
31775;BME280;66189;49.000;11.640;2023-05-20T01:16:51;96067.75;;;11.17;79.99
31775;BME280;66189;49.000;11.640;2023-05-20T01:18:54;96061.50;;;11.13;79.83
31775;BME280;66189;49.000;11.640;2023-05-20T01:20:57;96060.66;;;11.09;80.30
31775;BME280;66189;49.000;11.640;2023-05-20T01:23:00;96056.88;;;11.14;80.07
31775;BME280;66189;49.000;11.640;2023-05-20T01:25:01;96053.47;;;11.17;79.92
31775;BME280;66189;49.000;11.640;2023-05-20T01:27:03;96058.50;;;11.18;79.55
31775;BME280;66189;49.000;11.640;2023-05-20T01:29:04;96063.47;;;11.16;79.67
31775;BME280;66189;49.000;11.640;2023-05-20T01:31:14;96066.81;;;11.10;80.15
31775;BME280;66189;49.000;11.640;2023-05-20T01:33:19;96058.72;;;11.10;79.93
31775;BME280;66189;49.000;11.640;2023-05-20T01:35:24;96058.38;;;11.11;79.83
31775;BME280;66189;49.000;11.640;2023-05-20T01:37:26;96059.53;;;11.10;80.18
31775;BME280;66189;49.000;11.640;2023-05-20T01:39:28;96062.94;;;11.07;80.20
31775;BME280;66189;49.000;11.640;2023-05-20T01:41:30;96049.88;;;11.09;80.00
31775;BME280;66189;49.000;11.640;2023-05-20T01:43:33;96050.75;;;11.13;79.68
31775;BME280;66189;49.000;11.640;2023-05-20T01:45:34;96054.91;;;11.11;80.08
31775;BME280;66189;49.000;11.640;2023-05-20T01:47:34;96047.91;;;11.06;80.06
31775;BME280;66189;49.000;11.640;2023-05-20T01:49:35;96041.41;;;11.07;79.81
31775;BME280;66189;49.000;11.640;2023-05-20T01:51:36;96043.72;;;11.09;80.19
31775;BME280;66189;49.000;11.640;2023-05-20T01:53:37;96043.28;;;11.07;80.02
31775;BME280;66189;49.000;11.640;2023-05-20T01:55:37;96045.56;;;11.05;80.01
31775;BME280;66189;49.000;11.640;2023-05-20T01:57:38;96040.41;;;10.96;80.76
31775;BME280;66189;49.000;11.640;2023-05-20T01:59:38;96048.94;;;10.98;80.42
31775;BME280;66189;49.000;11.640;2023-05-20T02:01:39;96042.38;;;10.99;80.22
31775;BME280;66189;49.000;11.640;2023-05-20T02:03:39;96051.69;;;11.01;80.10
31775;BME280;66189;49.000;11.640;2023-05-20T02:05:40;96044.25;;;10.95;80.57
31775;BME280;66189;49.000;11.640;2023-05-20T02:07:41;96032.28;;;10.92;80.42
31775;BME280;66189;49.000;11.640;2023-05-20T02:09:41;96044.66;;;10.97;80.57
31775;BME280;66189;49.000;11.640;2023-05-20T02:11:42;96039.88;;;10.87;81.04
31775;BME280;66189;49.000;11.640;2023-05-20T02:13:42;96037.97;;;10.87;81.17
31775;BME280;66189;49.000;11.640;2023-05-20T02:15:42;96032.50;;;10.83;80.83
31775;BME280;66189;49.000;11.640;2023-05-20T02:17:44;96028.47;;;10.93;80.48
31775;BME280;66189;49.000;11.640;2023-05-20T02:19:44;96032.66;;;10.91;80.94
31775;BME280;66189;49.000;11.640;2023-05-20T02:21:45;96040.31;;;10.89;80.87
31775;BME280;66189;49.000;11.640;2023-05-20T02:23:48;96035.16;;;10.80;81.23
31775;BME280;66189;49.000;11.640;2023-05-20T02:25:48;96034.34;;;10.79;81.26
31775;BME280;66189;49.000;11.640;2023-05-20T02:27:48;96031.75;;;10.83;81.00
31775;BME280;66189;49.000;11.640;2023-05-20T02:29:49;96039.88;;;10.87;80.64
31775;BME280;66189;49.000;11.640;2023-05-20T02:31:49;96041.28;;;10.80;80.96
31775;BME280;66189;49.000;11.640;2023-05-20T02:33:49;96040.94;;;10.82;80.98
31775;BME280;66189;49.000;11.640;2023-05-20T02:35:50;96045.59;;;10.85;80.83
31775;BME280;66189;49.000;11.640;2023-05-20T02:37:50;96044.41;;;10.82;81.16
31775;BME280;66189;49.000;11.640;2023-05-20T02:39:50;96042.50;;;10.83;80.74
31775;BME280;66189;49.000;11.640;2023-05-20T02:41:51;96050.13;;;10.81;81.20
31775;BME280;66189;49.000;11.640;2023-05-20T02:43:51;96045.13;;;10.79;81.17
31775;BME280;66189;49.000;11.640;2023-05-20T02:45:52;96050.38;;;10.72;81.41
31775;BME280;66189;49.000;11.640;2023-05-20T02:47:52;96035.34;;;10.71;81.42
31775;BME280;66189;49.000;11.640;2023-05-20T02:49:52;96043.06;;;10.73;81.27
31775;BME280;66189;49.000;11.640;2023-05-20T02:51:53;96041.88;;;10.70;81.40
31775;BME280;66189;49.000;11.640;2023-05-20T02:53:53;96038.47;;;10.73;81.08
31775;BME280;66189;49.000;11.640;2023-05-20T02:55:54;96033.38;;;10.68;81.38
31775;BME280;66189;49.000;11.640;2023-05-20T02:57:54;96031.03;;;10.66;81.56
31775;BME280;66189;49.000;11.640;2023-05-20T02:59:56;96035.53;;;10.59;81.85
31775;BME280;66189;49.000;11.640;2023-05-20T03:01:56;96034.88;;;10.65;81.53
31775;BME280;66189;49.000;11.640;2023-05-20T03:03:57;96043.28;;;10.64;81.35
31775;BME280;66189;49.000;11.640;2023-05-20T03:05:59;96044.44;;;10.63;81.45
31775;BME280;66189;49.000;11.640;2023-05-20T03:07:59;96039.78;;;10.60;81.56
31775;BME280;66189;49.000;11.640;2023-05-20T03:10:01;96047.59;;;10.69;81.49
31775;BME280;66189;49.000;11.640;2023-05-20T03:12:02;96049.94;;;10.70;80.94
31775;BME280;66189;49.000;11.640;2023-05-20T03:14:03;96047.97;;;10.67;81.34
31775;BME280;66189;49.000;11.640;2023-05-20T03:16:05;96045.63;;;10.65;81.53
31775;BME280;66189;49.000;11.640;2023-05-20T03:18:06;96047.03;;;10.59;81.79
31775;BME280;66189;49.000;11.640;2023-05-20T03:20:07;96045.63;;;10.65;81.35
31775;BME280;66189;49.000;11.640;2023-05-20T03:22:08;96047.13;;;10.63;81.54
31775;BME280;66189;49.000;11.640;2023-05-20T03:24:08;96047.00;;;10.56;81.72
31775;BME280;66189;49.000;11.640;2023-05-20T03:26:10;96046.28;;;10.59;81.77
31775;BME280;66189;49.000;11.640;2023-05-20T03:28:10;96043.66;;;10.62;81.33
31775;BME280;66189;49.000;11.640;2023-05-20T03:30:11;96038.22;;;10.59;81.34
31775;BME280;66189;49.000;11.640;2023-05-20T03:32:12;96037.00;;;10.56;81.92
31775;BME280;66189;49.000;11.640;2023-05-20T03:34:13;96038.16;;;10.55;82.06
31775;BME280;66189;49.000;11.640;2023-05-20T03:36:14;96045.41;;;10.55;82.14
31775;BME280;66189;49.000;11.640;2023-05-20T03:38:14;96038.41;;;10.50;82.16
31775;BME280;66189;49.000;11.640;2023-05-20T03:40:14;96044.44;;;10.63;81.62
31775;BME280;66189;49.000;11.640;2023-05-20T03:42:15;96049.25;;;10.54;82.06
31775;BME280;66189;49.000;11.640;2023-05-20T03:44:16;96052.38;;;10.56;81.91
31775;BME280;66189;49.000;11.640;2023-05-20T03:46:16;96042.38;;;10.56;81.87
31775;BME280;66189;49.000;11.640;2023-05-20T03:48:17;96046.22;;;10.55;82.22
31775;BME280;66189;49.000;11.640;2023-05-20T03:50:17;96046.56;;;10.54;82.31
31775;BME280;66189;49.000;11.640;2023-05-20T03:52:18;96046.47;;;10.50;82.49
31775;BME280;66189;49.000;11.640;2023-05-20T03:54:18;96046.13;;;10.52;82.20
31775;BME280;66189;49.000;11.640;2023-05-20T03:56:22;96043.03;;;10.49;82.84
31775;BME280;66189;49.000;11.640;2023-05-20T03:58:23;96045.72;;;10.49;82.62
31775;BME280;66189;49.000;11.640;2023-05-20T04:00:24;96050.66;;;10.47;82.62
31775;BME280;66189;49.000;11.640;2023-05-20T04:02:25;96049.16;;;10.50;82.82
31775;BME280;66189;49.000;11.640;2023-05-20T04:04:26;96048.31;;;10.46;83.36
31775;BME280;66189;49.000;11.640;2023-05-20T04:06:26;96043.66;;;10.43;83.26
31775;BME280;66189;49.000;11.640;2023-05-20T04:08:27;96041.75;;;10.43;82.89
31775;BME280;66189;49.000;11.640;2023-05-20T04:10:27;96043.72;;;10.46;82.52
31775;BME280;66189;49.000;11.640;2023-05-20T04:12:28;96039.53;;;10.49;82.83
31775;BME280;66189;49.000;11.640;2023-05-20T04:14:30;96046.84;;;10.48;82.63
31775;BME280;66189;49.000;11.640;2023-05-20T04:16:33;96046.13;;;10.52;82.95
31775;BME280;66189;49.000;11.640;2023-05-20T04:18:34;96044.84;;;10.45;83.46
31775;BME280;66189;49.000;11.640;2023-05-20T04:20:38;96046.13;;;10.52;83.00
31775;BME280;66189;49.000;11.640;2023-05-20T04:22:41;96046.06;;;10.48;82.95
31775;BME280;66189;49.000;11.640;2023-05-20T04:24:42;96042.38;;;10.56;82.84
31775;BME280;66189;49.000;11.640;2023-05-20T04:26:42;96048.47;;;10.53;82.62
31775;BME280;66189;49.000;11.640;2023-05-20T04:28:45;96043.72;;;10.46;83.50
31775;BME280;66189;49.000;11.640;2023-05-20T04:30:48;96040.25;;;10.46;83.49
31775;BME280;66189;49.000;11.640;2023-05-20T04:32:49;96043.88;;;10.54;82.99
31775;BME280;66189;49.000;11.640;2023-05-20T04:34:51;96036.06;;;10.48;82.97
31775;BME280;66189;49.000;11.640;2023-05-20T04:36:54;96041.75;;;10.43;84.08
31775;BME280;66189;49.000;11.640;2023-05-20T04:38:54;96037.13;;;10.44;83.77
31775;BME280;66189;49.000;11.640;2023-05-20T04:40:55;96038.25;;;10.43;83.76
31775;BME280;66189;49.000;11.640;2023-05-20T04:42:58;96041.47;;;10.48;83.76
31775;BME280;66189;49.000;11.640;2023-05-20T04:45:00;96035.81;;;10.54;83.67
31775;BME280;66189;49.000;11.640;2023-05-20T04:47:03;96035.00;;;10.53;84.04
31775;BME280;66189;49.000;11.640;2023-05-20T04:49:03;96036.13;;;10.52;83.78
31775;BME280;66189;49.000;11.640;2023-05-20T04:51:04;96044.00;;;10.61;83.94
31775;BME280;66189;49.000;11.640;2023-05-20T04:53:05;96037.56;;;10.65;83.94
31775;BME280;66189;49.000;11.640;2023-05-20T04:55:06;96035.00;;;10.73;83.40
31775;BME280;66189;49.000;11.640;2023-05-20T04:57:08;96033.94;;;10.77;83.48
31775;BME280;66189;49.000;11.640;2023-05-20T04:59:09;96036.75;;;10.84;83.13
31775;BME280;66189;49.000;11.640;2023-05-20T05:01:09;96040.38;;;10.92;82.97
31775;BME280;66189;49.000;11.640;2023-05-20T05:03:10;96032.22;;;10.89;83.18
31775;BME280;66189;49.000;11.640;2023-05-20T05:05:14;96035.56;;;11.05;82.57
31775;BME280;66189;49.000;11.640;2023-05-20T05:07:15;96031.75;;;11.06;83.27
31775;BME280;66189;49.000;11.640;2023-05-20T05:09:15;96036.97;;;11.18;82.22
31775;BME280;66189;49.000;11.640;2023-05-20T05:11:17;96030.84;;;11.22;82.26
31775;BME280;66189;49.000;11.640;2023-05-20T05:13:19;96028.28;;;11.29;81.91
31775;BME280;66189;49.000;11.640;2023-05-20T05:15:20;96029.13;;;11.33;81.96
31775;BME280;66189;49.000;11.640;2023-05-20T05:17:21;96029.72;;;11.46;81.79
31775;BME280;66189;49.000;11.640;2023-05-20T05:19:21;96029.44;;;11.51;81.24
31775;BME280;66189;49.000;11.640;2023-05-20T05:21:21;96034.09;;;11.54;81.08
31775;BME280;66189;49.000;11.640;2023-05-20T05:23:22;96031.44;;;11.58;80.93
31775;BME280;66189;49.000;11.640;2023-05-20T05:25:23;96027.69;;;11.66;80.99
31775;BME280;66189;49.000;11.640;2023-05-20T05:27:23;96028.53;;;11.70;80.77
31775;BME280;66189;49.000;11.640;2023-05-20T05:29:23;96027.53;;;11.78;80.56
31775;BME280;66189;49.000;11.640;2023-05-20T05:31:24;96023.25;;;11.77;80.66
31775;BME280;66189;49.000;11.640;2023-05-20T05:33:24;96027.19;;;11.83;80.89
31775;BME280;66189;49.000;11.640;2023-05-20T05:35:25;96036.16;;;11.91;80.49
31775;BME280;66189;49.000;11.640;2023-05-20T05:37:26;96020.91;;;11.99;79.94
31775;BME280;66189;49.000;11.640;2023-05-20T05:39:26;96019.81;;;12.03;79.88
31775;BME280;66189;49.000;11.640;2023-05-20T05:41:27;96024.94;;;12.12;79.16
31775;BME280;66189;49.000;11.640;2023-05-20T05:43:27;96018.03;;;12.15;79.42
31775;BME280;66189;49.000;11.640;2023-05-20T05:45:28;96020.41;;;12.20;78.75
31775;BME280;66189;49.000;11.640;2023-05-20T05:47:28;96020.88;;;12.25;78.81
31775;BME280;66189;49.000;11.640;2023-05-20T05:49:32;96021.31;;;12.31;77.79
31775;BME280;66189;49.000;11.640;2023-05-20T05:51:33;96019.47;;;12.39;77.96
31775;BME280;66189;49.000;11.640;2023-05-20T05:53:33;96016.47;;;12.44;77.97
31775;BME280;66189;49.000;11.640;2023-05-20T05:55:33;96022.72;;;12.52;78.24
31775;BME280;66189;49.000;11.640;2023-05-20T05:57:34;96006.94;;;12.54;77.90
31775;BME280;66189;49.000;11.640;2023-05-20T05:59:35;96005.06;;;12.61;77.50
31775;BME280;66189;49.000;11.640;2023-05-20T06:01:36;96011.03;;;12.78;77.00
31775;BME280;66189;49.000;11.640;2023-05-20T06:03:36;96004.84;;;12.74;76.44
31775;BME280;66189;49.000;11.640;2023-05-20T06:05:37;96013.06;;;12.85;76.25
31775;BME280;66189;49.000;11.640;2023-05-20T06:07:37;96009.72;;;12.98;76.03
31775;BME280;66189;49.000;11.640;2023-05-20T06:09:38;96002.00;;;13.01;75.67
31775;BME280;66189;49.000;11.640;2023-05-20T06:11:39;96001.25;;;13.04;74.84
31775;BME280;66189;49.000;11.640;2023-05-20T06:13:41;96001.41;;;13.18;74.62
31775;BME280;66189;49.000;11.640;2023-05-20T06:15:41;96005.72;;;13.26;73.51
31775;BME280;66189;49.000;11.640;2023-05-20T06:17:42;96008.81;;;13.28;73.58
31775;BME280;66189;49.000;11.640;2023-05-20T06:19:43;96000.84;;;13.39;74.19
31775;BME280;66189;49.000;11.640;2023-05-20T06:21:43;95999.28;;;13.38;73.56
31775;BME280;66189;49.000;11.640;2023-05-20T06:23:44;96000.03;;;13.39;73.22
31775;BME280;66189;49.000;11.640;2023-05-20T06:25:46;96001.69;;;13.50;73.47
31775;BME280;66189;49.000;11.640;2023-05-20T06:27:48;96014.16;;;13.66;74.32
31775;BME280;66189;49.000;11.640;2023-05-20T06:29:52;96009.13;;;13.64;73.29
31775;BME280;66189;49.000;11.640;2023-05-20T06:31:52;96001.06;;;13.75;72.70
31775;BME280;66189;49.000;11.640;2023-05-20T06:33:53;95994.22;;;13.89;73.37
31775;BME280;66189;49.000;11.640;2023-05-20T06:35:54;96005.06;;;13.96;71.86
31775;BME280;66189;49.000;11.640;2023-05-20T06:37:55;95997.41;;;14.09;70.67
31775;BME280;66189;49.000;11.640;2023-05-20T06:39:56;95998.16;;;14.06;71.35
31775;BME280;66189;49.000;11.640;2023-05-20T06:41:56;96004.81;;;14.19;71.18
31775;BME280;66189;49.000;11.640;2023-05-20T06:44:05;96007.13;;;14.24;69.57
31775;BME280;66189;49.000;11.640;2023-05-20T06:46:08;96001.38;;;14.29;70.01
31775;BME280;66189;49.000;11.640;2023-05-20T06:48:20;96001.78;;;14.38;70.33
31775;BME280;66189;49.000;11.640;2023-05-20T06:50:21;95996.03;;;14.51;69.17
31775;BME280;66189;49.000;11.640;2023-05-20T06:52:21;95993.00;;;14.63;69.73
31775;BME280;66189;49.000;11.640;2023-05-20T06:54:22;95980.63;;;14.69;68.99
31775;BME280;66189;49.000;11.640;2023-05-20T06:56:22;95988.41;;;14.78;68.81
31775;BME280;66189;49.000;11.640;2023-05-20T06:58:23;95991.53;;;14.84;69.14
31775;BME280;66189;49.000;11.640;2023-05-20T07:00:23;95989.56;;;14.84;67.62
31775;BME280;66189;49.000;11.640;2023-05-20T07:02:24;95986.88;;;14.91;69.22
31775;BME280;66189;49.000;11.640;2023-05-20T07:04:25;95986.91;;;15.02;67.71
31775;BME280;66189;49.000;11.640;2023-05-20T07:06:26;95991.56;;;15.13;68.27
31775;BME280;66189;49.000;11.640;2023-05-20T07:08:27;96002.00;;;15.28;68.05
31775;BME280;66189;49.000;11.640;2023-05-20T07:10:28;95998.13;;;15.22;67.42
31775;BME280;66189;49.000;11.640;2023-05-20T07:12:28;95991.56;;;15.38;67.13
31775;BME280;66189;49.000;11.640;2023-05-20T07:14:29;95990.41;;;15.46;67.19
31775;BME280;66189;49.000;11.640;2023-05-20T07:16:29;95999.31;;;15.61;65.81
31775;BME280;66189;49.000;11.640;2023-05-20T07:18:32;95992.34;;;15.60;66.04
31775;BME280;66189;49.000;11.640;2023-05-20T07:20:32;95984.59;;;15.55;64.75
31775;BME280;66189;49.000;11.640;2023-05-20T07:22:37;95986.13;;;15.77;65.75
31775;BME280;66189;49.000;11.640;2023-05-20T07:24:53;95979.53;;;15.71;65.60
31775;BME280;66189;49.000;11.640;2023-05-20T07:26:53;95976.06;;;15.81;65.08
31775;BME280;66189;49.000;11.640;2023-05-20T07:28:54;95987.31;;;15.84;65.17
31775;BME280;66189;49.000;11.640;2023-05-20T07:30:54;95981.44;;;15.92;64.58
31775;BME280;66189;49.000;11.640;2023-05-20T07:33:00;95981.00;;;16.15;65.61
31775;BME280;66189;49.000;11.640;2023-05-20T07:35:00;95978.59;;;16.32;64.42
31775;BME280;66189;49.000;11.640;2023-05-20T07:37:01;95975.94;;;16.25;63.60
31775;BME280;66189;49.000;11.640;2023-05-20T07:39:01;95982.03;;;16.50;63.36
31775;BME280;66189;49.000;11.640;2023-05-20T07:41:02;95973.91;;;16.50;63.29
31775;BME280;66189;49.000;11.640;2023-05-20T07:43:03;95978.09;;;16.59;63.31
31775;BME280;66189;49.000;11.640;2023-05-20T07:45:05;95976.50;;;16.72;62.56
31775;BME280;66189;49.000;11.640;2023-05-20T07:47:06;95971.06;;;16.68;62.85
31775;BME280;66189;49.000;11.640;2023-05-20T07:49:07;95967.13;;;16.80;63.08
31775;BME280;66189;49.000;11.640;2023-05-20T07:51:08;95965.75;;;16.50;61.53
31775;BME280;66189;49.000;11.640;2023-05-20T07:53:10;95971.56;;;16.49;60.74
31775;BME280;66189;49.000;11.640;2023-05-20T07:55:11;95958.22;;;16.76;60.84
31775;BME280;66189;49.000;11.640;2023-05-20T07:57:12;95967.13;;;16.84;63.35
31775;BME280;66189;49.000;11.640;2023-05-20T07:59:14;95970.44;;;17.13;63.67
31775;BME280;66189;49.000;11.640;2023-05-20T08:01:18;95960.13;;;17.35;62.09
31775;BME280;66189;49.000;11.640;2023-05-20T08:03:19;95967.09;;;17.44;60.92
31775;BME280;66189;49.000;11.640;2023-05-20T08:05:30;95959.97;;;17.57;60.75
31775;BME280;66189;49.000;11.640;2023-05-20T08:07:33;95960.78;;;17.50;60.66
31775;BME280;66189;49.000;11.640;2023-05-20T08:09:33;95971.31;;;17.48;59.86
31775;BME280;66189;49.000;11.640;2023-05-20T08:11:34;95951.25;;;17.73;59.05
31775;BME280;66189;49.000;11.640;2023-05-20T08:13:35;95962.03;;;17.84;57.78
31775;BME280;66189;49.000;11.640;2023-05-20T08:15:35;95957.16;;;17.64;57.75
31775;BME280;66189;49.000;11.640;2023-05-20T08:17:36;95960.00;;;17.53;58.67
31775;BME280;66189;49.000;11.640;2023-05-20T08:19:38;95952.56;;;17.57;60.33
31775;BME280;66189;49.000;11.640;2023-05-20T08:21:39;95956.88;;;17.97;61.96
31775;BME280;66189;49.000;11.640;2023-05-20T08:23:40;95961.22;;;17.90;59.16
31775;BME280;66189;49.000;11.640;2023-05-20T08:25:40;95961.22;;;17.87;58.93
31775;BME280;66189;49.000;11.640;2023-05-20T08:27:42;95948.06;;;17.82;57.03
31775;BME280;66189;49.000;11.640;2023-05-20T08:29:45;95952.00;;;18.15;59.06
31775;BME280;66189;49.000;11.640;2023-05-20T08:31:46;95959.28;;;18.25;57.18
31775;BME280;66189;49.000;11.640;2023-05-20T08:33:47;95946.91;;;18.17;56.90
31775;BME280;66189;49.000;11.640;2023-05-20T08:35:48;95951.25;;;18.45;59.13
31775;BME280;66189;49.000;11.640;2023-05-20T08:37:48;95953.09;;;18.83;57.46
31775;BME280;66189;49.000;11.640;2023-05-20T08:39:49;95944.09;;;18.55;56.16
31775;BME280;66189;49.000;11.640;2023-05-20T08:41:49;95949.56;;;18.82;55.91
31775;BME280;66189;49.000;11.640;2023-05-20T08:43:50;95941.28;;;18.93;55.95
31775;BME280;66189;49.000;11.640;2023-05-20T08:45:53;95944.19;;;18.79;56.36
31775;BME280;66189;49.000;11.640;2023-05-20T08:47:55;95952.56;;;18.64;56.18
31775;BME280;66189;49.000;11.640;2023-05-20T08:49:56;95952.38;;;18.48;55.18
31775;BME280;66189;49.000;11.640;2023-05-20T08:51:59;95953.28;;;18.38;54.59
31775;BME280;66189;49.000;11.640;2023-05-20T08:54:00;95949.75;;;18.41;54.73
31775;BME280;66189;49.000;11.640;2023-05-20T08:56:01;95950.59;;;18.65;55.90
31775;BME280;66189;49.000;11.640;2023-05-20T08:58:02;95959.44;;;18.73;54.69
31775;BME280;66189;49.000;11.640;2023-05-20T09:00:03;95952.59;;;18.61;53.69
31775;BME280;66189;49.000;11.640;2023-05-20T09:02:12;95951.97;;;18.19;52.66
31775;BME280;66189;49.000;11.640;2023-05-20T09:04:13;95949.44;;;18.35;55.36
31775;BME280;66189;49.000;11.640;2023-05-20T09:06:16;95955.66;;;18.36;54.61
31775;BME280;66189;49.000;11.640;2023-05-20T09:08:23;95954.72;;;18.15;53.28
31775;BME280;66189;49.000;11.640;2023-05-20T09:10:25;95946.03;;;17.93;56.03
31775;BME280;66189;49.000;11.640;2023-05-20T09:12:26;95955.78;;;17.87;56.54
31775;BME280;66189;49.000;11.640;2023-05-20T09:14:27;95958.75;;;18.38;54.00
31775;BME280;66189;49.000;11.640;2023-05-20T09:16:27;95951.59;;;18.78;54.86
31775;BME280;66189;49.000;11.640;2023-05-20T09:18:28;95954.75;;;19.04;53.38
31775;BME280;66189;49.000;11.640;2023-05-20T09:20:29;95950.16;;;19.48;53.82
31775;BME280;66189;49.000;11.640;2023-05-20T09:22:30;95947.63;;;19.81;52.00
31775;BME280;66189;49.000;11.640;2023-05-20T09:24:31;95954.59;;;19.86;52.79
31775;BME280;66189;49.000;11.640;2023-05-20T09:26:31;95943.78;;;19.55;50.25
31775;BME280;66189;49.000;11.640;2023-05-20T09:28:32;95947.34;;;19.76;54.11
31775;BME280;66189;49.000;11.640;2023-05-20T09:30:32;95941.38;;;20.04;53.22
31775;BME280;66189;49.000;11.640;2023-05-20T09:32:33;95943.94;;;20.12;50.99
31775;BME280;66189;49.000;11.640;2023-05-20T09:34:34;95934.84;;;20.18;51.37
31775;BME280;66189;49.000;11.640;2023-05-20T09:36:34;95932.50;;;20.57;51.37
31775;BME280;66189;49.000;11.640;2023-05-20T09:38:38;95939.47;;;20.78;51.35
31775;BME280;66189;49.000;11.640;2023-05-20T09:40:41;95942.78;;;20.69;49.42
31775;BME280;66189;49.000;11.640;2023-05-20T09:42:49;95945.09;;;20.71;51.08
31775;BME280;66189;49.000;11.640;2023-05-20T09:44:54;95950.66;;;20.67;49.18
31775;BME280;66189;49.000;11.640;2023-05-20T09:46:55;95946.53;;;20.59;50.91
31775;BME280;66189;49.000;11.640;2023-05-20T09:48:56;95940.91;;;20.66;48.92
31775;BME280;66189;49.000;11.640;2023-05-20T09:50:57;95944.88;;;20.62;51.63
31775;BME280;66189;49.000;11.640;2023-05-20T09:53:01;95937.47;;;20.62;51.16
31775;BME280;66189;49.000;11.640;2023-05-20T09:55:03;95935.84;;;20.85;52.30
31775;BME280;66189;49.000;11.640;2023-05-20T09:57:06;95940.41;;;20.15;49.44
31775;BME280;66189;49.000;11.640;2023-05-20T09:59:06;95930.44;;;20.24;52.22
31775;BME280;66189;49.000;11.640;2023-05-20T10:01:08;95921.75;;;20.30;49.93
31775;BME280;66189;49.000;11.640;2023-05-20T10:03:08;95926.88;;;20.64;52.30
31775;BME280;66189;49.000;11.640;2023-05-20T10:05:14;95932.13;;;20.18;50.51
31775;BME280;66189;49.000;11.640;2023-05-20T10:10:02;95924.13;;;20.28;53.45
31775;BME280;66189;49.000;11.640;2023-05-20T10:14:38;95921.63;;;20.17;49.53
31775;BME280;66189;49.000;11.640;2023-05-20T10:18:56;95907.84;;;20.40;52.41
31775;BME280;66189;49.000;11.640;2023-05-20T10:20:57;95914.44;;;20.80;49.74
31775;BME280;66189;49.000;11.640;2023-05-20T10:22:58;95917.69;;;20.74;50.20
31775;BME280;66189;49.000;11.640;2023-05-20T10:24:59;95907.44;;;20.95;51.87
31775;BME280;66189;49.000;11.640;2023-05-20T10:27:02;95904.28;;;21.13;51.58
31775;BME280;66189;49.000;11.640;2023-05-20T10:29:16;95916.41;;;20.79;47.61
31775;BME280;66189;49.000;11.640;2023-05-20T10:31:20;95908.97;;;20.80;50.71
31775;BME280;66189;49.000;11.640;2023-05-20T10:33:21;95907.47;;;20.79;50.89
31775;BME280;66189;49.000;11.640;2023-05-20T10:35:23;95902.28;;;20.64;51.00
31775;BME280;66189;49.000;11.640;2023-05-20T10:37:29;95907.69;;;20.84;47.38
31775;BME280;66189;49.000;11.640;2023-05-20T10:39:31;95909.00;;;21.12;50.90
31775;BME280;66189;49.000;11.640;2023-05-20T10:41:33;95905.56;;;21.08;48.98
31775;BME280;66189;49.000;11.640;2023-05-20T10:43:33;95899.59;;;21.14;47.36
31775;BME280;66189;49.000;11.640;2023-05-20T10:45:34;95898.16;;;21.09;49.55